sensor_id;sensor_type;location;lat;lon;timestamp;pressure;altitude;pressure_sealevel;temperature;humidity
82395;BME280;72031;51.786;4.662;2023-12-20T00:00:42;101762.56;;;6.86;87.12
82395;BME280;72031;51.786;4.662;2023-12-20T00:03:09;101756.47;;;6.84;86.82
82395;BME280;72031;51.786;4.662;2023-12-20T00:05:35;101765.66;;;6.75;87.47
82395;BME280;72031;51.786;4.662;2023-12-20T00:08:03;101764.84;;;6.73;86.93
82395;BME280;72031;51.786;4.662;2023-12-20T00:10:31;101768.41;;;6.72;86.80
82395;BME280;72031;51.786;4.662;2023-12-20T00:12:57;101765.81;;;6.71;86.98
82395;BME280;72031;51.786;4.662;2023-12-20T00:15:22;101771.63;;;6.81;86.58
82395;BME280;72031;51.786;4.662;2023-12-20T00:17:48;101780.78;;;6.73;86.49
82395;BME280;72031;51.786;4.662;2023-12-20T00:20:13;101777.34;;;6.70;87.16
82395;BME280;72031;51.786;4.662;2023-12-20T00:22:39;101772.81;;;6.73;87.17
82395;BME280;72031;51.786;4.662;2023-12-20T00:25:04;101773.72;;;6.72;87.16
82395;BME280;72031;51.786;4.662;2023-12-20T00:27:30;101772.44;;;6.83;86.96
82395;BME280;72031;51.786;4.662;2023-12-20T00:29:55;101778.34;;;6.89;86.35
82395;BME280;72031;51.786;4.662;2023-12-20T00:32:21;101778.78;;;6.78;87.25
82395;BME280;72031;51.786;4.662;2023-12-20T00:34:46;101775.91;;;6.85;86.97
82395;BME280;72031;51.786;4.662;2023-12-20T00:37:12;101769.84;;;7.03;85.83
82395;BME280;72031;51.786;4.662;2023-12-20T00:39:37;101774.03;;;6.87;86.35
82395;BME280;72031;51.786;4.662;2023-12-20T00:42:05;101765.06;;;6.91;85.53
82395;BME280;72031;51.786;4.662;2023-12-20T00:44:30;101766.88;;;6.89;86.36
82395;BME280;72031;51.786;4.662;2023-12-20T00:46:56;101768.00;;;6.83;86.51
82395;BME280;72031;51.786;4.662;2023-12-20T00:49:21;101771.53;;;6.84;87.03
82395;BME280;72031;51.786;4.662;2023-12-20T00:51:47;101767.94;;;6.85;87.33
82395;BME280;72031;51.786;4.662;2023-12-20T00:54:13;101768.06;;;6.82;86.93
82395;BME280;72031;51.786;4.662;2023-12-20T00:56:40;101773.41;;;6.80;87.05
82395;BME280;72031;51.786;4.662;2023-12-20T00:59:06;101769.22;;;6.74;87.12
82395;BME280;72031;51.786;4.662;2023-12-20T01:01:31;101769.47;;;6.68;87.38
82395;BME280;72031;51.786;4.662;2023-12-20T01:03:58;101770.75;;;6.58;87.73
82395;BME280;72031;51.786;4.662;2023-12-20T01:06:24;101769.88;;;6.58;87.57
82395;BME280;72031;51.786;4.662;2023-12-20T01:08:50;101773.56;;;6.54;88.50
82395;BME280;72031;51.786;4.662;2023-12-20T01:11:16;101780.66;;;6.53;88.42
82395;BME280;72031;51.786;4.662;2023-12-20T01:13:41;101773.63;;;6.52;88.43
82395;BME280;72031;51.786;4.662;2023-12-20T01:16:10;101780.72;;;6.52;88.33
82395;BME280;72031;51.786;4.662;2023-12-20T01:18:35;101783.00;;;6.61;87.87
82395;BME280;72031;51.786;4.662;2023-12-20T01:21:02;101779.56;;;6.59;87.99
82395;BME280;72031;51.786;4.662;2023-12-20T01:23:29;101771.53;;;6.60;87.90
82395;BME280;72031;51.786;4.662;2023-12-20T01:25:54;101765.53;;;6.55;87.96
82395;BME280;72031;51.786;4.662;2023-12-20T01:28:20;101757.50;;;6.58;87.82
82395;BME280;72031;51.786;4.662;2023-12-20T01:30:45;101751.19;;;6.61;88.00
82395;BME280;72031;51.786;4.662;2023-12-20T01:33:11;101751.88;;;6.66;87.94
82395;BME280;72031;51.786;4.662;2023-12-20T01:35:36;101761.72;;;6.62;88.29
82395;BME280;72031;51.786;4.662;2023-12-20T01:38:03;101758.28;;;6.60;88.32
82395;BME280;72031;51.786;4.662;2023-12-20T01:40:28;101754.84;;;6.58;88.51
82395;BME280;72031;51.786;4.662;2023-12-20T01:42:58;101753.78;;;6.62;89.00
82395;BME280;72031;51.786;4.662;2023-12-20T01:45:24;101767.25;;;6.80;87.97
82395;BME280;72031;51.786;4.662;2023-12-20T01:47:51;101762.78;;;6.82;88.17
82395;BME280;72031;51.786;4.662;2023-12-20T01:50:18;101763.19;;;6.93;87.43
82395;BME280;72031;51.786;4.662;2023-12-20T01:52:45;101762.69;;;7.05;86.56
82395;BME280;72031;51.786;4.662;2023-12-20T01:55:11;101758.81;;;7.14;85.79
82395;BME280;72031;51.786;4.662;2023-12-20T01:57:41;101754.34;;;7.14;85.48
82395;BME280;72031;51.786;4.662;2023-12-20T02:00:07;101760.75;;;7.30;84.78
82395;BME280;72031;51.786;4.662;2023-12-20T02:02:39;101765.28;;;7.28;84.57
82395;BME280;72031;51.786;4.662;2023-12-20T02:05:09;101760.34;;;7.41;84.38
82395;BME280;72031;51.786;4.662;2023-12-20T02:07:35;101755.75;;;7.45;84.13
82395;BME280;72031;51.786;4.662;2023-12-20T02:10:01;101754.28;;;7.38;84.44
82395;BME280;72031;51.786;4.662;2023-12-20T02:12:27;101757.47;;;7.46;84.00
82395;BME280;72031;51.786;4.662;2023-12-20T02:14:52;101753.41;;;7.37;84.57
82395;BME280;72031;51.786;4.662;2023-12-20T02:17:20;101753.63;;;7.32;85.10
82395;BME280;72031;51.786;4.662;2023-12-20T02:19:46;101752.13;;;7.25;85.62
82395;BME280;72031;51.786;4.662;2023-12-20T02:22:12;101750.97;;;7.32;85.51
82395;BME280;72031;51.786;4.662;2023-12-20T02:24:38;101766.13;;;7.29;85.93
82395;BME280;72031;51.786;4.662;2023-12-20T02:27:06;101755.34;;;7.33;86.15
82395;BME280;72031;51.786;4.662;2023-12-20T02:29:35;101759.84;;;7.31;85.84
82395;BME280;72031;51.786;4.662;2023-12-20T02:32:01;101765.56;;;7.43;85.22
82395;BME280;72031;51.786;4.662;2023-12-20T02:34:28;101770.34;;;7.55;85.12
82395;BME280;72031;51.786;4.662;2023-12-20T02:36:54;101772.03;;;7.57;84.44
82395;BME280;72031;51.786;4.662;2023-12-20T02:39:20;101771.28;;;7.54;84.69
82395;BME280;72031;51.786;4.662;2023-12-20T02:41:46;101763.88;;;7.62;83.73
82395;BME280;72031;51.786;4.662;2023-12-20T02:44:12;101755.25;;;7.57;84.00
82395;BME280;72031;51.786;4.662;2023-12-20T02:46:37;101753.03;;;7.46;85.24
82395;BME280;72031;51.786;4.662;2023-12-20T02:49:03;101750.28;;;7.48;84.93
82395;BME280;72031;51.786;4.662;2023-12-20T02:51:28;101744.94;;;7.49;84.58
82395;BME280;72031;51.786;4.662;2023-12-20T02:53:54;101737.22;;;7.43;84.39
82395;BME280;72031;51.786;4.662;2023-12-20T02:56:20;101738.22;;;7.41;84.75
82395;BME280;72031;51.786;4.662;2023-12-20T02:58:46;101736.53;;;7.38;85.26
82395;BME280;72031;51.786;4.662;2023-12-20T03:01:12;101736.81;;;7.32;85.12
82395;BME280;72031;51.786;4.662;2023-12-20T03:03:38;101732.91;;;7.41;85.36
82395;BME280;72031;51.786;4.662;2023-12-20T03:06:03;101725.13;;;7.36;85.84
82395;BME280;72031;51.786;4.662;2023-12-20T03:08:29;101717.09;;;7.38;85.33
82395;BME280;72031;51.786;4.662;2023-12-20T03:10:54;101720.94;;;7.30;86.00
82395;BME280;72031;51.786;4.662;2023-12-20T03:13:20;101724.59;;;7.28;86.23
82395;BME280;72031;51.786;4.662;2023-12-20T03:15:46;101736.63;;;7.37;85.94
82395;BME280;72031;51.786;4.662;2023-12-20T03:18:11;101736.94;;;7.29;86.47
82395;BME280;72031;51.786;4.662;2023-12-20T03:20:38;101739.47;;;7.32;86.39
82395;BME280;72031;51.786;4.662;2023-12-20T03:23:04;101730.91;;;7.46;85.96
82395;BME280;72031;51.786;4.662;2023-12-20T03:25:30;101723.34;;;7.37;86.24
82395;BME280;72031;51.786;4.662;2023-12-20T03:27:55;101720.53;;;7.40;86.23
82395;BME280;72031;51.786;4.662;2023-12-20T03:30:21;101722.31;;;7.41;85.58
82395;BME280;72031;51.786;4.662;2023-12-20T03:32:47;101730.19;;;7.42;85.78
82395;BME280;72031;51.786;4.662;2023-12-20T03:35:12;101716.13;;;7.40;85.60
82395;BME280;72031;51.786;4.662;2023-12-20T03:37:38;101717.84;;;7.41;85.21
82395;BME280;72031;51.786;4.662;2023-12-20T03:40:04;101720.69;;;7.37;86.17
82395;BME280;72031;51.786;4.662;2023-12-20T03:42:30;101721.22;;;7.45;85.57
82395;BME280;72031;51.786;4.662;2023-12-20T03:44:56;101730.19;;;7.42;85.68
82395;BME280;72031;51.786;4.662;2023-12-20T03:47:22;101733.31;;;7.31;85.17
82395;BME280;72031;51.786;4.662;2023-12-20T03:49:48;101728.50;;;7.40;84.97
82395;BME280;72031;51.786;4.662;2023-12-20T03:52:13;101728.03;;;7.30;85.28
82395;BME280;72031;51.786;4.662;2023-12-20T03:54:40;101726.13;;;7.33;84.76
82395;BME280;72031;51.786;4.662;2023-12-20T03:57:08;101726.38;;;7.27;84.48
82395;BME280;72031;51.786;4.662;2023-12-20T03:59:38;101714.28;;;7.20;84.61
82395;BME280;72031;51.786;4.662;2023-12-20T04:02:04;101721.38;;;7.20;84.51
82395;BME280;72031;51.786;4.662;2023-12-20T04:04:30;101708.19;;;7.18;84.14
82395;BME280;72031;51.786;4.662;2023-12-20T04:07:01;101714.69;;;7.11;84.47
82395;BME280;72031;51.786;4.662;2023-12-20T04:09:27;101699.50;;;7.15;84.18
82395;BME280;72031;51.786;4.662;2023-12-20T04:11:52;101711.09;;;7.12;84.31
82395;BME280;72031;51.786;4.662;2023-12-20T04:14:18;101711.16;;;7.11;84.16
82395;BME280;72031;51.786;4.662;2023-12-20T04:16:43;101710.38;;;7.09;84.32
82395;BME280;72031;51.786;4.662;2023-12-20T04:19:09;101730.47;;;7.14;83.88
82395;BME280;72031;51.786;4.662;2023-12-20T04:21:34;101736.16;;;7.05;84.25
82395;BME280;72031;51.786;4.662;2023-12-20T04:24:00;101719.84;;;7.14;84.18
82395;BME280;72031;51.786;4.662;2023-12-20T04:26:26;101716.53;;;7.09;83.92
82395;BME280;72031;51.786;4.662;2023-12-20T04:28:51;101716.00;;;7.01;84.38
82395;BME280;72031;51.786;4.662;2023-12-20T04:31:18;101719.19;;;7.09;84.13
82395;BME280;72031;51.786;4.662;2023-12-20T04:33:44;101720.13;;;7.08;84.59
82395;BME280;72031;51.786;4.662;2023-12-20T04:36:09;101728.16;;;7.07;84.79
82395;BME280;72031;51.786;4.662;2023-12-20T04:38:35;101719.63;;;6.98;84.65
82395;BME280;72031;51.786;4.662;2023-12-20T04:41:01;101734.16;;;6.90;85.55
82395;BME280;72031;51.786;4.662;2023-12-20T04:43:27;101727.09;;;6.89;85.16
82395;BME280;72031;51.786;4.662;2023-12-20T04:45:53;101735.03;;;6.89;85.72
82395;BME280;72031;51.786;4.662;2023-12-20T04:48:19;101722.03;;;6.83;85.88
82395;BME280;72031;51.786;4.662;2023-12-20T04:50:45;101716.47;;;6.89;85.84
82395;BME280;72031;51.786;4.662;2023-12-20T04:53:12;101714.09;;;6.83;86.22
82395;BME280;72031;51.786;4.662;2023-12-20T04:55:38;101715.06;;;6.80;86.14
82395;BME280;72031;51.786;4.662;2023-12-20T04:58:04;101704.56;;;6.77;85.98
82395;BME280;72031;51.786;4.662;2023-12-20T05:00:30;101707.41;;;6.72;86.30
82395;BME280;72031;51.786;4.662;2023-12-20T05:02:57;101704.81;;;6.71;86.33
82395;BME280;72031;51.786;4.662;2023-12-20T05:05:22;101704.16;;;6.66;86.52
82395;BME280;72031;51.786;4.662;2023-12-20T05:07:49;101705.38;;;6.57;86.88
82395;BME280;72031;51.786;4.662;2023-12-20T05:10:15;101699.00;;;6.61;86.57
82395;BME280;72031;51.786;4.662;2023-12-20T05:12:41;101697.41;;;6.57;86.55
82395;BME280;72031;51.786;4.662;2023-12-20T05:15:08;101704.31;;;6.61;86.52
82395;BME280;72031;51.786;4.662;2023-12-20T05:17:33;101710.63;;;6.59;86.48
82395;BME280;72031;51.786;4.662;2023-12-20T05:19:59;101714.25;;;6.56;86.20
82395;BME280;72031;51.786;4.662;2023-12-20T05:22:25;101712.50;;;6.55;86.30
82395;BME280;72031;51.786;4.662;2023-12-20T05:24:53;101716.78;;;6.59;85.48
82395;BME280;72031;51.786;4.662;2023-12-20T05:27:18;101716.78;;;6.59;85.62
82395;BME280;72031;51.786;4.662;2023-12-20T05:29:45;101708.88;;;6.58;85.91
82395;BME280;72031;51.786;4.662;2023-12-20T05:32:11;101707.97;;;6.59;85.30
82395;BME280;72031;51.786;4.662;2023-12-20T05:34:38;101710.47;;;6.62;85.36
82395;BME280;72031;51.786;4.662;2023-12-20T05:37:03;101720.72;;;6.71;85.01
82395;BME280;72031;51.786;4.662;2023-12-20T05:39:29;101715.34;;;6.72;84.55
82395;BME280;72031;51.786;4.662;2023-12-20T05:41:56;101710.25;;;6.68;85.56
82395;BME280;72031;51.786;4.662;2023-12-20T05:44:22;101712.03;;;6.67;84.94
82395;BME280;72031;51.786;4.662;2023-12-20T05:46:47;101714.69;;;6.67;84.75
82395;BME280;72031;51.786;4.662;2023-12-20T05:49:13;101716.97;;;6.76;85.13
82395;BME280;72031;51.786;4.662;2023-12-20T05:51:39;101715.47;;;6.69;85.33
82395;BME280;72031;51.786;4.662;2023-12-20T05:54:05;101711.41;;;6.61;85.81
82395;BME280;72031;51.786;4.662;2023-12-20T05:56:30;101716.59;;;6.64;85.54
82395;BME280;72031;51.786;4.662;2023-12-20T05:58:56;101698.53;;;6.73;85.39
82395;BME280;72031;51.786;4.662;2023-12-20T06:01:21;101699.50;;;6.71;85.91
82395;BME280;72031;51.786;4.662;2023-12-20T06:03:47;101705.81;;;6.68;86.32
82395;BME280;72031;51.786;4.662;2023-12-20T06:06:12;101697.06;;;6.66;86.19
82395;BME280;72031;51.786;4.662;2023-12-20T06:08:38;101713.03;;;6.65;86.38
82395;BME280;72031;51.786;4.662;2023-12-20T06:11:05;101705.00;;;6.66;86.38
82395;BME280;72031;51.786;4.662;2023-12-20T06:13:31;101705.38;;;6.79;86.08
82395;BME280;72031;51.786;4.662;2023-12-20T06:15:59;101701.78;;;6.80;86.22
82395;BME280;72031;51.786;4.662;2023-12-20T06:18:24;101693.59;;;6.86;85.19
82395;BME280;72031;51.786;4.662;2023-12-20T06:20:50;101702.47;;;6.85;85.83
82395;BME280;72031;51.786;4.662;2023-12-20T06:23:38;101726.34;;;6.85;85.28
82395;BME280;72031;51.786;4.662;2023-12-20T06:26:04;101714.69;;;6.89;85.49
82395;BME280;72031;51.786;4.662;2023-12-20T06:28:30;101717.31;;;6.89;85.69
82395;BME280;72031;51.786;4.662;2023-12-20T06:30:57;101718.88;;;6.95;85.51
82395;BME280;72031;51.786;4.662;2023-12-20T06:33:23;101714.44;;;6.95;85.24
82395;BME280;72031;51.786;4.662;2023-12-20T06:36:01;101708.03;;;7.01;84.93
82395;BME280;72031;51.786;4.662;2023-12-20T06:38:29;101707.09;;;7.02;85.03
82395;BME280;72031;51.786;4.662;2023-12-20T06:40:55;101714.91;;;7.05;84.71
82395;BME280;72031;51.786;4.662;2023-12-20T06:43:22;101707.78;;;7.07;85.00
82395;BME280;72031;51.786;4.662;2023-12-20T06:45:48;101712.72;;;7.16;85.02
82395;BME280;72031;51.786;4.662;2023-12-20T06:48:13;101702.41;;;7.09;84.75
82395;BME280;72031;51.786;4.662;2023-12-20T06:50:39;101698.28;;;7.01;85.28
82395;BME280;72031;51.786;4.662;2023-12-20T06:53:07;101692.16;;;6.99;85.22
82395;BME280;72031;51.786;4.662;2023-12-20T06:55:34;101685.88;;;7.02;85.23
82395;BME280;72031;51.786;4.662;2023-12-20T06:58:01;101695.47;;;7.04;85.56
82395;BME280;72031;51.786;4.662;2023-12-20T07:00:28;101688.28;;;7.08;85.06
82395;BME280;72031;51.786;4.662;2023-12-20T07:02:54;101683.22;;;7.22;84.42
82395;BME280;72031;51.786;4.662;2023-12-20T07:05:19;101691.94;;;7.26;85.05
82395;BME280;72031;51.786;4.662;2023-12-20T07:07:46;101690.00;;;7.29;84.09
82395;BME280;72031;51.786;4.662;2023-12-20T07:10:12;101684.78;;;7.28;84.27
82395;BME280;72031;51.786;4.662;2023-12-20T07:12:39;101689.03;;;7.32;84.78
82395;BME280;72031;51.786;4.662;2023-12-20T07:15:05;101691.63;;;7.33;84.49
82395;BME280;72031;51.786;4.662;2023-12-20T07:17:33;101691.69;;;7.32;84.45
82395;BME280;72031;51.786;4.662;2023-12-20T07:19:59;101691.47;;;7.37;84.36
82395;BME280;72031;51.786;4.662;2023-12-20T07:22:31;101693.97;;;7.19;84.70
82395;BME280;72031;51.786;4.662;2023-12-20T07:25:05;101687.34;;;7.09;85.02
82395;BME280;72031;51.786;4.662;2023-12-20T07:27:31;101685.78;;;7.03;85.87
82395;BME280;72031;51.786;4.662;2023-12-20T07:29:57;101687.91;;;6.95;85.88
82395;BME280;72031;51.786;4.662;2023-12-20T07:32:22;101684.59;;;6.90;86.25
82395;BME280;72031;51.786;4.662;2023-12-20T07:34:48;101680.06;;;6.92;86.28
82395;BME280;72031;51.786;4.662;2023-12-20T07:37:14;101693.22;;;6.95;86.14
82395;BME280;72031;51.786;4.662;2023-12-20T07:39:41;101695.69;;;7.00;86.20
82395;BME280;72031;51.786;4.662;2023-12-20T07:42:19;101695.94;;;6.94;85.91
82395;BME280;72031;51.786;4.662;2023-12-20T07:44:45;101693.72;;;6.83;86.88
82395;BME280;72031;51.786;4.662;2023-12-20T07:47:11;101692.03;;;6.81;86.76
82395;BME280;72031;51.786;4.662;2023-12-20T07:49:40;101696.25;;;6.86;86.29
82395;BME280;72031;51.786;4.662;2023-12-20T07:52:06;101697.91;;;6.89;86.22
82395;BME280;72031;51.786;4.662;2023-12-20T07:54:33;101690.31;;;6.80;86.43
82395;BME280;72031;51.786;4.662;2023-12-20T07:56:59;101691.19;;;6.80;87.13
82395;BME280;72031;51.786;4.662;2023-12-20T07:59:24;101687.94;;;6.73;87.55
82395;BME280;72031;51.786;4.662;2023-12-20T08:01:49;101696.47;;;6.80;87.00
82395;BME280;72031;51.786;4.662;2023-12-20T08:04:15;101699.13;;;6.80;86.84
82395;BME280;72031;51.786;4.662;2023-12-20T08:06:41;101689.75;;;6.71;87.33
82395;BME280;72031;51.786;4.662;2023-12-20T08:09:07;101703.47;;;6.83;87.31
82395;BME280;72031;51.786;4.662;2023-12-20T08:11:32;101707.00;;;6.83;87.03
82395;BME280;72031;51.786;4.662;2023-12-20T08:13:58;101713.03;;;6.87;87.31
82395;BME280;72031;51.786;4.662;2023-12-20T08:16:24;101710.91;;;6.95;86.86
82395;BME280;72031;51.786;4.662;2023-12-20T08:18:50;101723.09;;;7.00;86.75
82395;BME280;72031;51.786;4.662;2023-12-20T08:21:18;101719.75;;;6.95;86.46
82395;BME280;72031;51.786;4.662;2023-12-20T08:23:46;101714.81;;;7.08;86.97
82395;BME280;72031;51.786;4.662;2023-12-20T08:26:12;101708.38;;;7.14;87.06
82395;BME280;72031;51.786;4.662;2023-12-20T08:28:39;101705.84;;;7.11;86.41
82395;BME280;72031;51.786;4.662;2023-12-20T08:31:05;101711.94;;;7.13;86.90
82395;BME280;72031;51.786;4.662;2023-12-20T08:33:30;101698.44;;;7.19;86.56
82395;BME280;72031;51.786;4.662;2023-12-20T08:35:56;101702.81;;;7.20;87.07
82395;BME280;72031;51.786;4.662;2023-12-20T08:38:22;101698.28;;;7.22;86.99
82395;BME280;72031;51.786;4.662;2023-12-20T08:40:48;101696.50;;;7.22;87.03
82395;BME280;72031;51.786;4.662;2023-12-20T08:43:14;101699.84;;;7.27;86.80
82395;BME280;72031;51.786;4.662;2023-12-20T08:45:39;101703.19;;;7.32;86.47
82395;BME280;72031;51.786;4.662;2023-12-20T08:48:06;101703.28;;;7.29;86.50
82395;BME280;72031;51.786;4.662;2023-12-20T08:50:32;101713.50;;;7.39;86.51
82395;BME280;72031;51.786;4.662;2023-12-20T08:52:58;101704.28;;;7.47;86.24
82395;BME280;72031;51.786;4.662;2023-12-20T08:55:23;101716.16;;;7.39;86.50
82395;BME280;72031;51.786;4.662;2023-12-20T08:57:49;101715.06;;;7.44;86.32
82395;BME280;72031;51.786;4.662;2023-12-20T09:00:16;101720.44;;;7.43;86.46
82395;BME280;72031;51.786;4.662;2023-12-20T09:02:43;101717.56;;;7.47;86.91
82395;BME280;72031;51.786;4.662;2023-12-20T09:05:08;101726.34;;;7.49;86.34
82395;BME280;72031;51.786;4.662;2023-12-20T09:07:35;101726.13;;;7.54;86.72
82395;BME280;72031;51.786;4.662;2023-12-20T09:10:01;101720.44;;;7.63;86.66
82395;BME280;72031;51.786;4.662;2023-12-20T09:12:35;101721.09;;;7.68;86.68
82395;BME280;72031;51.786;4.662;2023-12-20T09:15:05;101713.13;;;7.68;86.66
82395;BME280;72031;51.786;4.662;2023-12-20T09:17:31;101703.56;;;7.64;87.00
82395;BME280;72031;51.786;4.662;2023-12-20T09:19:56;101707.47;;;7.76;86.65
82395;BME280;72031;51.786;4.662;2023-12-20T09:22:22;101698.31;;;7.83;86.23
82395;BME280;72031;51.786;4.662;2023-12-20T09:24:48;101689.09;;;7.90;85.90
82395;BME280;72031;51.786;4.662;2023-12-20T09:27:13;101683.59;;;7.95;85.94
82395;BME280;72031;51.786;4.662;2023-12-20T09:29:39;101696.97;;;8.12;85.54
82395;BME280;72031;51.786;4.662;2023-12-20T09:32:05;101691.16;;;8.04;85.31
82395;BME280;72031;51.786;4.662;2023-12-20T09:34:31;101693.63;;;8.08;85.13
82395;BME280;72031;51.786;4.662;2023-12-20T09:36:56;101692.75;;;8.08;85.16
82395;BME280;72031;51.786;4.662;2023-12-20T09:39:22;101692.38;;;8.15;84.66
82395;BME280;72031;51.786;4.662;2023-12-20T09:42:01;101693.38;;;8.13;84.58
82395;BME280;72031;51.786;4.662;2023-12-20T09:44:28;101695.25;;;8.11;84.73
82395;BME280;72031;51.786;4.662;2023-12-20T09:46:55;101697.66;;;8.17;84.33
82395;BME280;72031;51.786;4.662;2023-12-20T09:49:27;101690.44;;;8.19;84.09
82395;BME280;72031;51.786;4.662;2023-12-20T09:51:53;101704.97;;;8.12;84.75
82395;BME280;72031;51.786;4.662;2023-12-20T09:54:21;101699.91;;;8.06;84.87
82395;BME280;72031;51.786;4.662;2023-12-20T09:56:47;101699.50;;;8.15;84.75
82395;BME280;72031;51.786;4.662;2023-12-20T09:59:14;101699.56;;;8.13;85.28
82395;BME280;72031;51.786;4.662;2023-12-20T10:01:43;101708.22;;;8.18;84.89
82395;BME280;72031;51.786;4.662;2023-12-20T10:04:10;101701.75;;;8.24;84.54
82395;BME280;72031;51.786;4.662;2023-12-20T10:06:42;101711.31;;;8.28;84.54
82395;BME280;72031;51.786;4.662;2023-12-20T10:09:10;101707.53;;;8.32;84.75
82395;BME280;72031;51.786;4.662;2023-12-20T10:11:37;101704.66;;;8.38;84.73
82395;BME280;72031;51.786;4.662;2023-12-20T10:14:04;101692.78;;;8.45;84.49
82395;BME280;72031;51.786;4.662;2023-12-20T10:16:30;101687.31;;;8.49;84.00
82395;BME280;72031;51.786;4.662;2023-12-20T10:18:59;101688.03;;;8.52;83.94
82395;BME280;72031;51.786;4.662;2023-12-20T10:21:27;101690.03;;;8.47;84.64
82395;BME280;72031;51.786;4.662;2023-12-20T10:24:17;101685.31;;;8.54;84.08
82395;BME280;72031;51.786;4.662;2023-12-20T10:26:45;101694.50;;;8.46;84.57
82395;BME280;72031;51.786;4.662;2023-12-20T10:29:11;101689.34;;;8.43;84.48
82395;BME280;72031;51.786;4.662;2023-12-20T10:31:36;101685.59;;;8.48;84.98
82395;BME280;72031;51.786;4.662;2023-12-20T10:34:04;101686.69;;;8.43;84.66
82395;BME280;72031;51.786;4.662;2023-12-20T10:36:32;101682.34;;;8.60;84.45
82395;BME280;72031;51.786;4.662;2023-12-20T10:38:58;101675.69;;;8.51;84.69
82395;BME280;72031;51.786;4.662;2023-12-20T10:41:32;101677.03;;;8.60;84.70
82395;BME280;72031;51.786;4.662;2023-12-20T10:44:01;101674.94;;;8.48;85.22
82395;BME280;72031;51.786;4.662;2023-12-20T10:46:27;101682.97;;;8.65;84.74
82395;BME280;72031;51.786;4.662;2023-12-20T10:48:57;101685.88;;;8.60;85.02
82395;BME280;72031;51.786;4.662;2023-12-20T10:51:24;101678.22;;;8.71;84.50
82395;BME280;72031;51.786;4.662;2023-12-20T10:53:53;101674.88;;;8.68;84.78
82395;BME280;72031;51.786;4.662;2023-12-20T10:56:19;101667.75;;;8.68;84.42
82395;BME280;72031;51.786;4.662;2023-12-20T10:58:47;101664.69;;;8.59;85.02
82395;BME280;72031;51.786;4.662;2023-12-20T11:01:18;101670.16;;;8.73;85.09
82395;BME280;72031;51.786;4.662;2023-12-20T11:03:51;101663.91;;;8.74;85.05
82395;BME280;72031;51.786;4.662;2023-12-20T11:06:32;101660.38;;;8.73;85.13
82395;BME280;72031;51.786;4.662;2023-12-20T11:12:05;101650.91;;;8.68;85.00
82395;BME280;72031;51.786;4.662;2023-12-20T11:14:52;101650.06;;;8.67;84.39
82395;BME280;72031;51.786;4.662;2023-12-20T11:17:19;101653.06;;;8.79;85.08
82395;BME280;72031;51.786;4.662;2023-12-20T11:22:30;101649.56;;;8.95;84.79
82395;BME280;72031;51.786;4.662;2023-12-20T11:27:30;101627.56;;;9.09;83.67
82395;BME280;72031;51.786;4.662;2023-12-20T11:29:57;101639.69;;;8.97;83.83
82395;BME280;72031;51.786;4.662;2023-12-20T11:32:29;101646.41;;;8.87;84.43
82395;BME280;72031;51.786;4.662;2023-12-20T11:34:59;101640.06;;;8.90;83.61
82395;BME280;72031;51.786;4.662;2023-12-20T11:37:30;101635.47;;;8.93;84.09
82395;BME280;72031;51.786;4.662;2023-12-20T11:40:07;101639.53;;;9.00;84.09
82395;BME280;72031;51.786;4.662;2023-12-20T11:42:50;101622.47;;;9.05;83.67
82395;BME280;72031;51.786;4.662;2023-12-20T11:45:36;101612.53;;;9.08;83.68
82395;BME280;72031;51.786;4.662;2023-12-20T11:48:02;101605.44;;;9.07;83.36
82395;BME280;72031;51.786;4.662;2023-12-20T11:50:28;101606.00;;;9.14;83.12
82395;BME280;72031;51.786;4.662;2023-12-20T11:52:55;101601.22;;;9.20;82.80
82395;BME280;72031;51.786;4.662;2023-12-20T11:55:23;101601.91;;;9.24;82.33
82395;BME280;72031;51.786;4.662;2023-12-20T11:57:51;101601.78;;;9.27;83.29
82395;BME280;72031;51.786;4.662;2023-12-20T12:00:17;101599.91;;;9.29;82.16
82395;BME280;72031;51.786;4.662;2023-12-20T12:02:43;101594.25;;;9.35;82.76
82395;BME280;72031;51.786;4.662;2023-12-20T12:05:11;101587.06;;;9.20;82.46
82395;BME280;72031;51.786;4.662;2023-12-20T12:07:37;101602.00;;;9.22;83.37
82395;BME280;72031;51.786;4.662;2023-12-20T12:10:04;101593.53;;;9.31;82.28
82395;BME280;72031;51.786;4.662;2023-12-20T12:12:30;101603.50;;;9.28;82.84
82395;BME280;72031;51.786;4.662;2023-12-20T12:14:56;101599.59;;;9.35;81.69
82395;BME280;72031;51.786;4.662;2023-12-20T12:17:23;101603.47;;;9.45;82.43
82395;BME280;72031;51.786;4.662;2023-12-20T12:19:49;101600.50;;;9.51;82.94
82395;BME280;72031;51.786;4.662;2023-12-20T12:22:16;101592.19;;;9.40;82.17
82395;BME280;72031;51.786;4.662;2023-12-20T12:24:47;101598.38;;;9.41;83.25
82395;BME280;72031;51.786;4.662;2023-12-20T12:27:13;101591.69;;;9.49;82.87
82395;BME280;72031;51.786;4.662;2023-12-20T12:29:40;101584.59;;;9.32;82.79
82395;BME280;72031;51.786;4.662;2023-12-20T12:32:09;101581.16;;;9.30;83.17
82395;BME280;72031;51.786;4.662;2023-12-20T12:34:35;101579.06;;;9.20;83.13
82395;BME280;72031;51.786;4.662;2023-12-20T12:37:03;101583.75;;;9.15;84.21
82395;BME280;72031;51.786;4.662;2023-12-20T12:39:30;101588.31;;;9.13;83.96
82395;BME280;72031;51.786;4.662;2023-12-20T12:41:56;101592.13;;;9.07;83.95
82395;BME280;72031;51.786;4.662;2023-12-20T12:44:25;101572.25;;;8.97;84.30
82395;BME280;72031;51.786;4.662;2023-12-20T12:46:52;101570.25;;;9.02;84.28
82395;BME280;72031;51.786;4.662;2023-12-20T12:49:22;101570.44;;;9.15;83.30
82395;BME280;72031;51.786;4.662;2023-12-20T12:51:47;101570.63;;;9.12;83.32
82395;BME280;72031;51.786;4.662;2023-12-20T12:54:13;101554.88;;;9.07;83.51
82395;BME280;72031;51.786;4.662;2023-12-20T12:56:41;101572.34;;;8.95;84.13
82395;BME280;72031;51.786;4.662;2023-12-20T12:59:07;101567.50;;;9.03;84.52
82395;BME280;72031;51.786;4.662;2023-12-20T13:01:33;101553.72;;;8.95;84.83
82395;BME280;72031;51.786;4.662;2023-12-20T13:03:59;101562.00;;;9.07;84.17
82395;BME280;72031;51.786;4.662;2023-12-20T13:06:28;101550.66;;;9.03;84.51